createdAt,value
2022-12-08T00:01:29.469Z,87.35
2022-12-08T00:03:58.694Z,87.13
2022-12-08T00:06:30.912Z,87.91
2022-12-08T00:08:57.770Z,88.12
2022-12-08T00:11:24.577Z,88.32
2022-12-08T00:13:51.603Z,88.52
2022-12-08T00:16:18.466Z,88.29
2022-12-08T00:18:46.195Z,88.41
2022-12-08T00:21:13.038Z,88.28
2022-12-08T00:23:41.287Z,88.35
2022-12-08T00:26:08.253Z,88.95
2022-12-08T00:28:35.527Z,89.16
2022-12-08T00:31:08.939Z,89.21
2022-12-08T00:33:36.351Z,89.48
2022-12-08T00:36:06.736Z,89.52
2022-12-08T00:38:33.783Z,89.60
2022-12-08T00:41:02.158Z,89.72
2022-12-08T00:43:29.016Z,89.53
2022-12-08T00:45:56.296Z,89.55
2022-12-08T00:48:23.116Z,89.53
2022-12-08T00:50:49.948Z,89.22
2022-12-08T00:53:16.936Z,89.51
2022-12-08T00:55:43.795Z,89.32
2022-12-08T00:58:11.921Z,89.82
2022-12-08T01:00:41.439Z,89.40
2022-12-08T01:03:10.302Z,89.21
2022-12-08T01:05:37.081Z,88.26
2022-12-08T01:08:06.261Z,89.50
2022-12-08T01:10:35.793Z,89.95
2022-12-08T01:13:02.880Z,90.35
2022-12-08T01:15:31.321Z,90.17
2022-12-08T01:17:58.459Z,90.45
2022-12-08T01:20:25.506Z,90.08
2022-12-08T01:22:52.516Z,90.60
2022-12-08T01:25:19.309Z,90.46
2022-12-08T01:27:46.021Z,90.37
2022-12-08T01:30:14.371Z,90.65
2022-12-08T01:32:42.571Z,90.74
2022-12-08T01:35:09.499Z,90.62
2022-12-08T01:37:36.409Z,90.67
2022-12-08T01:40:04.451Z,90.72
2022-12-08T01:42:31.473Z,90.78
2022-12-08T01:45:02.337Z,90.80
2022-12-08T01:47:37.978Z,90.87
2022-12-08T01:50:13.329Z,90.55
2022-12-08T01:52:47.181Z,90.29
2022-12-08T01:55:20.476Z,90.25
2022-12-08T01:57:52.454Z,90.05
2022-12-08T02:00:22.299Z,90.00
2022-12-08T02:02:57.298Z,89.99
2022-12-08T02:05:30.677Z,89.78
2022-12-08T02:08:01.820Z,89.69
2022-12-08T02:10:33.368Z,89.47
2022-12-08T02:13:01.877Z,88.93
2022-12-08T02:15:39.884Z,88.06
2022-12-08T02:18:29.540Z,87.59
2022-12-08T02:21:06.400Z,87.05
2022-12-08T02:23:47.455Z,87.29
2022-12-08T02:26:53.840Z,87.01
2022-12-08T02:29:51.032Z,86.93
2022-12-08T02:32:55.502Z,86.90
2022-12-08T02:35:36.365Z,87.14
2022-12-08T02:38:15.623Z,86.88
2022-12-08T02:40:57.799Z,86.13
2022-12-08T02:43:34.232Z,86.74
2022-12-08T02:46:08.037Z,86.93
2022-12-08T02:48:35.310Z,87.39
2022-12-08T02:51:04.949Z,87.52
2022-12-08T02:53:36.291Z,87.86
2022-12-08T02:56:15.193Z,87.97
2022-12-08T02:59:12.128Z,88.87
2022-12-08T03:02:06.661Z,90.40
2022-12-08T03:04:46.478Z,90.79
2022-12-08T03:07:25.522Z,91.59
2022-12-08T03:10:00.943Z,91.39
2022-12-08T03:12:37.895Z,91.88
2022-12-08T03:15:11.293Z,91.26
2022-12-08T03:17:45.353Z,91.44
2022-12-08T03:20:19.772Z,91.10
2022-12-08T03:22:52.077Z,91.23
2022-12-08T03:25:24.007Z,91.18
2022-12-08T03:27:52.187Z,91.24
2022-12-08T03:30:19.514Z,90.72
2022-12-08T03:32:57.972Z,89.75
2022-12-08T03:35:30.393Z,89.61
2022-12-08T03:38:05.271Z,88.99
2022-12-08T03:40:32.278Z,88.75
2022-12-08T03:42:59.071Z,88.67
2022-12-08T03:45:26.493Z,88.22
2022-12-08T03:47:53.291Z,87.93
2022-12-08T03:50:20.086Z,87.96
2022-12-08T03:52:46.959Z,87.51
2022-12-08T03:55:16.447Z,87.88
2022-12-08T03:57:43.541Z,88.68
2022-12-08T04:00:32.339Z,88.30
2022-12-08T04:03:08.934Z,88.70
2022-12-08T04:05:35.848Z,89.60
2022-12-08T04:08:02.959Z,90.65
2022-12-08T04:10:31.094Z,91.13
2022-12-08T04:12:58.154Z,91.82
2022-12-08T04:15:24.945Z,91.69
2022-12-08T04:17:51.787Z,91.29
2022-12-08T04:20:18.668Z,91.64
2022-12-08T04:22:45.569Z,91.36
2022-12-08T04:25:12.664Z,90.72
2022-12-08T04:27:41.068Z,90.29
2022-12-08T04:30:09.446Z,89.89
2022-12-08T04:32:36.161Z,90.07
2022-12-08T04:35:03.293Z,90.44
2022-12-08T04:37:30.054Z,90.19
2022-12-08T04:39:56.917Z,90.46
2022-12-08T04:42:23.809Z,90.33
2022-12-08T04:44:52.316Z,90.03
2022-12-08T04:47:19.178Z,89.95
2022-12-08T04:49:46.003Z,89.91
2022-12-08T04:52:12.925Z,89.90
2022-12-08T04:54:39.816Z,90.00
2022-12-08T04:57:06.830Z,89.81
2022-12-08T04:59:33.543Z,89.90
2022-12-08T05:02:02.279Z,89.71
2022-12-08T05:04:29.296Z,88.72
2022-12-08T05:06:56.235Z,88.62
2022-12-08T05:09:23.300Z,88.74
2022-12-08T05:11:50.175Z,88.49
2022-12-08T05:14:19.761Z,87.79
2022-12-08T05:16:47.481Z,87.38
2022-12-08T05:19:16.672Z,87.26
2022-12-08T05:21:44.594Z,87.14
2022-12-08T05:24:11.878Z,86.28
2022-12-08T05:26:38.689Z,86.16
2022-12-08T05:29:05.639Z,86.54
2022-12-08T05:31:32.639Z,86.23
2022-12-08T05:34:03.127Z,85.80
2022-12-08T05:36:31.844Z,85.50
2022-12-08T05:38:58.766Z,85.02
2022-12-08T05:41:25.820Z,84.55
2022-12-08T05:43:52.638Z,84.73
2022-12-08T05:46:19.628Z,85.78
2022-12-08T05:48:46.578Z,85.90
2022-12-08T05:51:18.689Z,85.37
2022-12-08T05:53:48.089Z,85.73
2022-12-08T05:56:15.722Z,86.15
2022-12-08T05:58:42.902Z,86.23
2022-12-08T06:01:20.371Z,86.71
2022-12-08T06:03:47.243Z,87.11
2022-12-08T06:06:14.117Z,86.91
2022-12-08T06:08:41.101Z,86.58
2022-12-08T06:11:10.204Z,86.24
2022-12-08T06:13:36.966Z,86.85
2022-12-08T06:16:05.711Z,86.72
2022-12-08T06:18:33.172Z,86.38
2022-12-08T06:21:04.774Z,85.99
2022-12-08T06:23:32.171Z,86.17
2022-12-08T06:26:01.619Z,86.01
2022-12-08T06:28:30.590Z,86.50
2022-12-08T06:30:57.692Z,86.21
2022-12-08T06:33:25.226Z,86.79
2022-12-08T06:35:52.746Z,86.77
2022-12-08T06:38:19.639Z,86.67
2022-12-08T06:40:53.959Z,86.75
2022-12-08T06:43:21.198Z,87.46
2022-12-08T06:45:49.856Z,87.30
2022-12-08T06:48:17.152Z,87.26
2022-12-08T06:50:44.601Z,87.36
2022-12-08T06:53:12.174Z,87.24
2022-12-08T06:55:59.110Z,86.92
2022-12-08T06:58:26.645Z,86.74
2022-12-08T07:00:55.046Z,86.79
2022-12-08T07:03:22.132Z,87.22
2022-12-08T07:05:48.957Z,87.32
2022-12-08T07:08:16.056Z,87.57
2022-12-08T07:10:43.017Z,87.77
2022-12-08T07:13:10.039Z,87.77
2022-12-08T07:15:36.843Z,87.40
2022-12-08T07:18:05.437Z,87.70
2022-12-08T07:20:32.193Z,87.56
2022-12-08T07:22:58.974Z,86.97
2022-12-08T07:25:25.764Z,86.65
2022-12-08T07:27:52.485Z,85.57
2022-12-08T07:30:20.063Z,84.14
2022-12-08T07:32:47.056Z,81.91
2022-12-08T07:35:15.673Z,82.93
2022-12-08T07:37:42.522Z,82.76
2022-12-08T07:40:11.339Z,84.66
2022-12-08T07:42:38.652Z,85.32
2022-12-08T07:45:07.151Z,85.16
2022-12-08T07:47:33.940Z,87.12
2022-12-08T07:50:00.768Z,85.87
2022-12-08T07:52:28.935Z,86.39
2022-12-08T07:54:55.705Z,87.27
2022-12-08T07:57:22.452Z,86.71
2022-12-08T07:59:49.268Z,86.52
2022-12-08T08:02:26.345Z,86.89
2022-12-08T08:04:53.826Z,87.02
2022-12-08T08:07:20.744Z,87.17
2022-12-08T08:09:49.163Z,87.26
2022-12-08T08:12:31.390Z,86.52
2022-12-08T08:15:00.307Z,86.44
2022-12-08T08:17:27.385Z,86.39
2022-12-08T08:19:54.749Z,86.70
2022-12-08T08:22:21.617Z,86.60
2022-12-08T08:24:49.953Z,86.68
2022-12-08T08:27:16.952Z,86.25
2022-12-08T08:29:43.938Z,85.76
2022-12-08T08:32:11.095Z,85.37
2022-12-08T08:34:39.066Z,84.85
2022-12-08T08:37:05.923Z,83.57
2022-12-08T08:39:32.876Z,83.13
2022-12-08T08:42:01.117Z,83.26
2022-12-08T08:44:27.946Z,82.41
2022-12-08T08:46:54.850Z,80.37
2022-12-08T08:49:21.681Z,80.37
2022-12-08T08:51:48.629Z,79.76
2022-12-08T08:54:15.479Z,80.43
2022-12-08T08:56:42.489Z,79.20
2022-12-08T08:59:11.141Z,79.07
2022-12-08T09:01:38.125Z,78.34
2022-12-08T09:04:05.306Z,76.53
2022-12-08T09:06:32.598Z,71.62
2022-12-08T09:08:59.457Z,70.67
2022-12-08T09:11:26.446Z,68.48
2022-12-08T09:13:54.680Z,66.26
2022-12-08T09:16:23.491Z,65.37
2022-12-08T09:18:51.204Z,59.04
2022-12-08T09:21:21.282Z,63.04
2022-12-08T09:23:49.021Z,62.74
2022-12-08T09:26:16.162Z,62.95
2022-12-08T09:28:43.035Z,65.22
2022-12-08T09:31:10.220Z,64.62
2022-12-08T09:33:38.494Z,66.40
2022-12-08T09:36:06.228Z,68.58
2022-12-08T09:38:34.131Z,69.78
2022-12-08T09:41:07.428Z,63.00
2022-12-08T09:43:58.468Z,62.60
2022-12-08T09:46:30.438Z,64.92
2022-12-08T09:49:01.969Z,62.10
2022-12-08T09:51:35.229Z,63.47
2022-12-08T09:54:10.233Z,65.47
2022-12-08T09:56:37.771Z,63.27
2022-12-08T09:59:21.966Z,64.59
2022-12-08T10:01:49.671Z,62.46
2022-12-08T10:04:25.378Z,63.42
2022-12-08T10:07:05.311Z,65.86
2022-12-08T10:09:43.062Z,66.95
2022-12-08T10:12:22.735Z,62.98
2022-12-08T10:15:03.542Z,65.61
2022-12-08T10:17:37.416Z,64.96
2022-12-08T10:20:14.912Z,66.64
2022-12-08T10:22:45.088Z,69.12
2022-12-08T10:25:18.795Z,69.56
2022-12-08T10:27:50.659Z,71.10
2022-12-08T10:30:22.383Z,72.63
2022-12-08T10:32:53.070Z,72.55
2022-12-08T10:35:24.321Z,73.12
2022-12-08T10:37:59.829Z,71.97
2022-12-08T10:40:29.105Z,70.66
2022-12-08T10:42:59.253Z,69.17
2022-12-08T10:45:30.557Z,70.35
2022-12-08T10:48:02.976Z,71.28
2022-12-08T10:50:41.421Z,71.67
2022-12-08T10:53:14.688Z,73.08
2022-12-08T10:55:45.037Z,73.11
2022-12-08T10:58:33.415Z,73.04
2022-12-08T11:01:06.445Z,71.56
2022-12-08T11:03:40.008Z,70.67
2022-12-08T11:06:17.469Z,72.06
2022-12-08T11:08:50.317Z,71.43
2022-12-08T11:11:18.272Z,69.89
2022-12-08T11:13:48.451Z,70.43
2022-12-08T11:16:18.893Z,70.17
2022-12-08T11:18:57.363Z,69.71
2022-12-08T11:21:36.259Z,68.38
2022-12-08T11:24:22.657Z,69.24
2022-12-08T11:26:57.945Z,69.57
2022-12-08T11:29:26.059Z,69.66
2022-12-08T11:31:59.793Z,69.65
2022-12-08T11:34:38.581Z,70.03
2022-12-08T11:37:21.785Z,70.02
2022-12-08T11:39:56.186Z,68.98
2022-12-08T11:42:32.656Z,70.47
2022-12-08T11:45:12.156Z,71.00
2022-12-08T11:47:55.448Z,70.75
2022-12-08T11:50:30.377Z,70.53
2022-12-08T11:53:01.663Z,70.96
2022-12-08T11:55:40.652Z,70.79
2022-12-08T11:58:18.515Z,71.29
2022-12-08T12:00:45.569Z,70.93
2022-12-08T12:03:27.097Z,70.78
2022-12-08T12:06:53.180Z,70.36
2022-12-08T12:09:24.998Z,69.70
2022-12-08T12:12:09.926Z,70.72
2022-12-08T12:15:07.655Z,71.15
2022-12-08T12:17:45.015Z,71.07
2022-12-08T12:20:21.113Z,70.83
2022-12-08T12:22:56.462Z,70.70
2022-12-08T12:25:27.196Z,71.22
2022-12-08T12:28:01.576Z,72.02
2022-12-08T12:30:53.235Z,72.91
2022-12-08T12:33:22.521Z,73.19
2022-12-08T12:35:49.884Z,73.91
2022-12-08T12:38:32.144Z,72.89
2022-12-08T12:41:05.494Z,73.28
2022-12-08T12:43:35.410Z,73.52
2022-12-08T12:46:53.678Z,73.00
2022-12-08T12:49:52.663Z,73.83
2022-12-08T12:52:48.978Z,74.44
2022-12-08T12:55:42.866Z,74.29
2022-12-08T12:58:41.602Z,74.07
2022-12-08T13:01:54.151Z,74.44
2022-12-08T13:04:32.050Z,73.15
2022-12-08T13:06:59.884Z,73.68
2022-12-08T13:09:37.237Z,73.74
2022-12-08T13:12:11.463Z,74.74
2022-12-08T13:14:48.612Z,73.29
2022-12-08T13:17:25.965Z,73.83
2022-12-08T13:19:57.898Z,74.40
2022-12-08T13:22:57.228Z,73.73
2022-12-08T13:26:09.052Z,74.12
2022-12-08T13:29:17.067Z,74.41
2022-12-08T13:31:51.126Z,73.16
2022-12-08T13:34:36.832Z,71.47
2022-12-08T13:37:25.449Z,70.78
2022-12-08T13:39:58.961Z,71.06
2022-12-08T13:42:36.412Z,70.66
2022-12-08T13:45:36.228Z,71.00
2022-12-08T13:48:30.217Z,71.37
2022-12-08T13:57:13.709Z,71.36
2022-12-08T13:59:45.423Z,72.30
2022-12-08T14:02:27.201Z,71.85
2022-12-08T14:07:46.613Z,71.70
2022-12-08T14:10:20.689Z,71.59
2022-12-08T14:12:57.095Z,71.27
2022-12-08T14:15:26.407Z,71.06
2022-12-08T14:17:56.028Z,71.09
2022-12-08T14:20:27.596Z,71.41
2022-12-08T14:22:55.518Z,72.22
2022-12-08T14:25:23.515Z,71.79
2022-12-08T14:27:57.682Z,71.57
2022-12-08T14:30:30.558Z,72.00
2022-12-08T14:33:00.257Z,71.78
2022-12-08T14:35:32.302Z,71.65
2022-12-08T14:38:02.957Z,71.78
2022-12-08T14:40:34.198Z,71.69
2022-12-08T14:43:16.816Z,71.80
2022-12-08T14:45:50.903Z,71.79
2022-12-08T14:48:24.634Z,71.26
2022-12-08T14:51:04.216Z,71.08
2022-12-08T14:53:40.361Z,70.52
2022-12-08T14:56:18.590Z,70.45
2022-12-08T14:58:47.623Z,70.40
2022-12-08T15:01:21.111Z,70.04
2022-12-08T15:03:51.515Z,70.58
2022-12-08T15:06:21.784Z,70.40
2022-12-08T15:08:56.141Z,70.58
2022-12-08T15:11:41.195Z,71.89
2022-12-08T15:14:28.714Z,72.29
2022-12-08T15:16:55.579Z,72.03
2022-12-08T15:19:28.691Z,72.20
2022-12-08T15:22:07.080Z,72.52
2022-12-08T15:24:33.896Z,72.71
2022-12-08T15:27:01.244Z,73.34
2022-12-08T15:29:30.686Z,73.55
2022-12-08T15:32:00.835Z,73.07
2022-12-08T15:34:28.086Z,72.67
2022-12-08T15:36:56.715Z,72.58
2022-12-08T15:39:32.186Z,72.19
2022-12-08T15:42:00.695Z,71.30
2022-12-08T15:44:28.093Z,71.00
2022-12-08T15:46:55.938Z,71.57
2022-12-08T15:49:24.349Z,71.18
2022-12-08T15:51:57.379Z,72.24
2022-12-08T15:54:33.227Z,72.95
2022-12-08T15:57:19.084Z,73.46
2022-12-08T15:59:47.556Z,73.97
2022-12-08T16:02:20.895Z,74.51
2022-12-08T16:07:36.718Z,75.31
2022-12-08T16:10:08.276Z,75.54
2022-12-08T16:13:26.782Z,75.65
2022-12-08T16:18:16.270Z,76.18
2022-12-08T16:21:08.059Z,76.44
2022-12-08T16:23:43.013Z,76.62
2022-12-08T16:26:44.053Z,76.62
2022-12-08T16:29:02.480Z,77.14
2022-12-08T16:31:29.726Z,77.07
2022-12-08T16:33:56.833Z,79.15
2022-12-08T16:36:23.694Z,77.56
2022-12-08T16:38:51.371Z,77.20
2022-12-08T16:41:19.604Z,77.34
2022-12-08T16:43:47.788Z,77.04
2022-12-08T16:46:19.783Z,77.96
2022-12-08T16:48:46.660Z,79.05
2022-12-08T16:51:18.067Z,79.08
2022-12-08T16:53:47.855Z,79.31
2022-12-08T16:56:15.900Z,79.85
2022-12-08T16:58:44.575Z,79.90
2022-12-08T17:01:13.393Z,80.39
2022-12-08T17:03:41.264Z,80.26
2022-12-08T17:06:09.994Z,79.58
2022-12-08T17:08:37.046Z,79.45
2022-12-08T17:11:04.212Z,79.61
2022-12-08T17:13:30.975Z,79.80
2022-12-08T17:16:09.342Z,79.74
2022-12-08T17:18:54.162Z,79.31
2022-12-08T17:21:23.345Z,79.16
2022-12-08T17:23:50.239Z,79.15
2022-12-08T17:26:17.241Z,79.26
2022-12-08T17:29:00.031Z,79.42
2022-12-08T17:31:31.391Z,78.91
2022-12-08T17:37:11.448Z,78.94
2022-12-08T17:39:48.054Z,78.67
2022-12-08T17:43:17.182Z,78.89
2022-12-08T17:46:09.833Z,78.22
2022-12-08T17:48:38.099Z,76.69
2022-12-08T17:51:09.693Z,76.95
2022-12-08T17:53:37.627Z,76.66
2022-12-08T17:56:05.564Z,75.92
2022-12-08T17:58:32.423Z,75.42
2022-12-08T18:00:59.340Z,75.68
2022-12-08T18:03:26.169Z,75.24
2022-12-08T18:05:54.359Z,74.93
2022-12-08T18:08:21.211Z,75.10
2022-12-08T18:10:48.290Z,75.22
2022-12-08T18:13:15.172Z,74.62
2022-12-08T18:15:41.973Z,75.50
2022-12-08T18:18:08.771Z,76.28
2022-12-08T18:20:35.550Z,76.08
2022-12-08T18:23:03.992Z,75.68
2022-12-08T18:25:30.737Z,76.62
2022-12-08T18:27:57.742Z,77.79
2022-12-08T18:30:25.135Z,79.25
2022-12-08T18:32:57.188Z,79.07
2022-12-08T18:35:24.420Z,79.00
2022-12-08T18:37:51.244Z,78.46
2022-12-08T18:40:19.801Z,78.82
2022-12-08T18:42:46.627Z,78.74
2022-12-08T18:45:15.756Z,78.34
2022-12-08T18:47:46.470Z,78.65
2022-12-08T18:50:13.390Z,79.83
2022-12-08T18:52:40.478Z,80.27
2022-12-08T18:55:09.296Z,79.63
2022-12-08T18:57:40.290Z,79.55
2022-12-08T19:00:11.064Z,77.45
2022-12-08T19:02:38.733Z,77.40
2022-12-08T19:05:06.953Z,77.18
2022-12-08T19:07:33.854Z,76.64
2022-12-08T19:10:00.695Z,75.55
2022-12-08T19:12:27.958Z,76.17
2022-12-08T19:14:57.037Z,75.91
2022-12-08T19:17:23.947Z,75.75
2022-12-08T19:19:50.725Z,75.96
2022-12-08T19:22:17.667Z,75.93
2022-12-08T19:24:44.506Z,75.39
2022-12-08T19:27:11.459Z,75.25
2022-12-08T19:29:38.454Z,75.26
2022-12-08T19:32:07.004Z,75.29
2022-12-08T19:34:33.925Z,76.27
2022-12-08T19:37:00.723Z,76.84
2022-12-08T19:39:27.779Z,77.24
2022-12-08T19:41:54.840Z,77.42
2022-12-08T19:44:25.490Z,77.53
2022-12-08T19:46:52.619Z,77.03
2022-12-08T19:49:20.888Z,77.15
2022-12-08T19:51:48.180Z,76.70
2022-12-08T19:54:14.992Z,76.96
2022-12-08T19:56:41.793Z,76.26
2022-12-08T19:59:08.683Z,78.64
2022-12-08T20:01:35.787Z,78.59
2022-12-08T20:04:02.656Z,78.80
2022-12-08T20:06:30.917Z,78.61
2022-12-08T20:08:57.697Z,78.51
2022-12-08T20:11:24.986Z,79.19
2022-12-08T20:13:51.845Z,79.62
2022-12-08T20:16:19.160Z,79.47
2022-12-08T20:18:46.080Z,80.22
2022-12-08T20:21:13.179Z,79.78
2022-12-08T20:23:41.402Z,79.80
2022-12-08T20:26:14.398Z,80.44
2022-12-08T20:28:41.231Z,79.97
2022-12-08T20:31:08.565Z,79.83
2022-12-08T20:33:36.249Z,79.68
2022-12-08T20:36:05.496Z,80.05
2022-12-08T20:38:32.356Z,80.48
2022-12-08T20:41:00.512Z,80.50
2022-12-08T20:43:27.301Z,81.32
2022-12-08T20:45:54.156Z,81.17
2022-12-08T20:48:21.076Z,81.34
2022-12-08T20:50:51.067Z,81.19
2022-12-08T20:53:18.157Z,80.77
2022-12-08T20:55:45.136Z,80.89
2022-12-08T20:58:13.932Z,81.11
2022-12-08T21:00:41.816Z,80.84
2022-12-08T21:03:09.251Z,80.68
2022-12-08T21:05:36.401Z,80.54
2022-12-08T21:08:03.749Z,80.35
2022-12-08T21:10:32.603Z,80.07
2022-12-08T21:12:59.738Z,80.20
2022-12-08T21:15:28.270Z,79.62
2022-12-08T21:17:55.312Z,79.88
2022-12-08T21:20:22.863Z,79.69
2022-12-08T21:22:49.983Z,79.84
2022-12-08T21:25:17.113Z,79.82
2022-12-08T21:27:44.055Z,79.95
2022-12-08T21:30:12.786Z,79.57
2022-12-08T21:32:41.430Z,79.94
2022-12-08T21:35:09.779Z,80.68
2022-12-08T21:37:36.983Z,81.78
2022-12-08T21:40:06.819Z,82.61
2022-12-08T21:42:34.460Z,83.12
2022-12-08T21:45:02.000Z,82.73
2022-12-08T21:47:29.070Z,83.04
2022-12-08T21:49:57.406Z,82.84
2022-12-08T21:52:25.441Z,82.58
2022-12-08T21:54:52.395Z,83.21
2022-12-08T21:57:19.296Z,83.14
2022-12-08T21:59:46.249Z,83.47
2022-12-08T22:02:20.785Z,83.46
2022-12-08T22:04:49.361Z,84.68
2022-12-08T22:07:17.803Z,84.32
2022-12-08T22:09:45.156Z,84.41
2022-12-08T22:12:12.331Z,84.49
2022-12-08T22:14:39.889Z,85.12
2022-12-08T22:17:07.194Z,84.88
2022-12-08T22:19:34.502Z,84.44
2022-12-08T22:22:01.982Z,84.98
2022-12-08T22:24:31.417Z,84.42
2022-12-08T22:26:58.784Z,84.48
2022-12-08T22:29:25.826Z,84.65
2022-12-08T22:31:52.577Z,83.85
2022-12-08T22:34:20.231Z,84.31
2022-12-08T22:36:46.985Z,84.16
2022-12-08T22:39:14.806Z,83.57
2022-12-08T22:41:43.148Z,82.91
2022-12-08T22:44:11.661Z,83.04
2022-12-08T22:46:38.624Z,82.45
2022-12-08T22:49:05.836Z,82.39
2022-12-08T22:51:35.705Z,82.57
2022-12-08T22:54:02.477Z,82.99
2022-12-08T22:56:29.268Z,83.04
2022-12-08T22:58:58.515Z,82.84
2022-12-08T23:01:28.664Z,82.65
2022-12-08T23:03:56.763Z,82.25
2022-12-08T23:06:24.699Z,82.85
2022-12-08T23:08:52.364Z,83.57
2022-12-08T23:11:21.005Z,83.87
2022-12-08T23:13:47.996Z,84.45
2022-12-08T23:16:16.379Z,84.15
2022-12-08T23:18:46.467Z,84.06
2022-12-08T23:21:18.524Z,83.57
2022-12-08T23:23:45.792Z,83.69
2022-12-08T23:26:19.055Z,82.94
2022-12-08T23:28:46.540Z,83.67
2022-12-08T23:31:14.027Z,83.92
2022-12-08T23:33:42.778Z,84.56
2022-12-08T23:36:11.868Z,84.65
2022-12-08T23:38:39.378Z,84.88
2022-12-08T23:41:08.749Z,85.68
2022-12-08T23:43:36.106Z,85.98
2022-12-08T23:46:04.035Z,85.71
2022-12-08T23:48:30.996Z,85.79
2022-12-08T23:50:59.367Z,85.61
2022-12-08T23:53:28.439Z,85.53
2022-12-08T23:55:59.180Z,84.81
2022-12-08T23:58:26.428Z,85.28
